sensor_id;sensor_type;location;lat;lon;timestamp;pressure;altitude;pressure_sealevel;temperature;humidity
79006;BME280;69202;45.498;-73.582;2023-08-24T00:00:57;100900.53;;;23.30;47.21
79006;BME280;69202;45.498;-73.582;2023-08-24T00:03:23;100725.03;;;22.09;47.45
79006;BME280;69202;45.498;-73.582;2023-08-24T00:05:49;100928.97;;;23.21;47.58
79006;BME280;69202;45.498;-73.582;2023-08-24T00:08:15;100967.28;;;23.48;47.53
79006;BME280;69202;45.498;-73.582;2023-08-24T00:10:43;100842.41;;;22.51;47.62
79006;BME280;69202;45.498;-73.582;2023-08-24T00:13:09;100699.94;;;21.65;47.48
79006;BME280;69202;45.498;-73.582;2023-08-24T00:15:35;100841.59;;;22.65;47.55
79006;BME280;69202;45.498;-73.582;2023-08-24T00:18:02;100734.09;;;21.84;47.51
79006;BME280;69202;45.498;-73.582;2023-08-24T00:20:28;101048.13;;;23.84;47.78
79006;BME280;69202;45.498;-73.582;2023-08-24T00:22:54;101055.88;;;23.77;47.96
79006;BME280;69202;45.498;-73.582;2023-08-24T00:25:20;101011.72;;;23.56;47.67
79006;BME280;69202;45.498;-73.582;2023-08-24T00:27:46;101024.69;;;23.61;48.00
79006;BME280;69202;45.498;-73.582;2023-08-24T00:30:12;100956.28;;;23.12;48.40
79006;BME280;69202;45.498;-73.582;2023-08-24T00:32:38;100729.16;;;21.71;47.96
79006;BME280;69202;45.498;-73.582;2023-08-24T00:35:05;100896.16;;;22.79;48.00
79006;BME280;69202;45.498;-73.582;2023-08-24T00:37:33;100919.09;;;22.94;48.13
79006;BME280;69202;45.498;-73.582;2023-08-24T00:40:06;100976.69;;;23.21;49.04
79006;BME280;69202;45.498;-73.582;2023-08-24T00:42:39;101053.66;;;23.74;49.45
79006;BME280;69202;45.498;-73.582;2023-08-24T00:45:10;100868.59;;;22.48;49.69
79006;BME280;69202;45.498;-73.582;2023-08-24T00:47:41;101101.16;;;23.81;49.78
79006;BME280;69202;45.498;-73.582;2023-08-24T00:50:08;101076.88;;;23.78;50.33
79006;BME280;69202;45.498;-73.582;2023-08-24T00:52:37;100966.22;;;22.98;50.77
79006;BME280;69202;45.498;-73.582;2023-08-24T00:55:05;100920.16;;;22.63;51.02
79006;BME280;69202;45.498;-73.582;2023-08-24T00:57:32;101109.97;;;23.83;51.33
79006;BME280;69202;45.498;-73.582;2023-08-24T00:59:59;100958.78;;;22.93;50.98
79006;BME280;69202;45.498;-73.582;2023-08-24T01:02:27;100945.28;;;22.87;51.09
79006;BME280;69202;45.498;-73.582;2023-08-24T01:04:53;100930.09;;;22.89;50.57
79006;BME280;69202;45.498;-73.582;2023-08-24T01:07:19;100967.06;;;23.03;50.13
79006;BME280;69202;45.498;-73.582;2023-08-24T01:09:46;101080.75;;;23.77;50.36
79006;BME280;69202;45.498;-73.582;2023-08-24T01:13:10;101092.56;;;23.93;50.35
79006;BME280;69202;45.498;-73.582;2023-08-24T01:15:19;101093.13;;;23.89;50.20
79006;BME280;69202;45.498;-73.582;2023-08-24T01:17:50;101082.91;;;23.85;50.91
79006;BME280;69202;45.498;-73.582;2023-08-24T01:20:17;101045.09;;;23.65;50.72
79006;BME280;69202;45.498;-73.582;2023-08-24T01:22:58;101080.16;;;23.90;50.04
79006;BME280;69202;45.498;-73.582;2023-08-24T01:28:01;100990.78;;;23.25;49.37
79006;BME280;69202;45.498;-73.582;2023-08-24T01:30:28;100940.31;;;22.89;49.51
79006;BME280;69202;45.498;-73.582;2023-08-24T01:32:56;101071.06;;;23.64;49.89
79006;BME280;69202;45.498;-73.582;2023-08-24T01:35:22;100973.38;;;23.19;49.73
79006;BME280;69202;45.498;-73.582;2023-08-24T01:37:48;101036.25;;;23.53;50.26
79006;BME280;69202;45.498;-73.582;2023-08-24T01:40:26;100889.00;;;22.57;50.85
79006;BME280;69202;45.498;-73.582;2023-08-24T01:43:01;101077.69;;;23.63;51.19
79006;BME280;69202;45.498;-73.582;2023-08-24T01:45:30;101028.84;;;23.23;51.39
79006;BME280;69202;45.498;-73.582;2023-08-24T01:47:57;100966.72;;;22.69;51.29
79006;BME280;69202;45.498;-73.582;2023-08-24T01:50:25;101097.28;;;23.46;51.30
79006;BME280;69202;45.498;-73.582;2023-08-24T01:52:51;100945.72;;;22.33;51.37
79006;BME280;69202;45.498;-73.582;2023-08-24T01:55:18;100904.63;;;22.16;51.73
79006;BME280;69202;45.498;-73.582;2023-08-24T01:57:44;100956.47;;;22.34;52.12
79006;BME280;69202;45.498;-73.582;2023-08-24T02:00:10;101090.06;;;22.99;52.00
79006;BME280;69202;45.498;-73.582;2023-08-24T02:02:37;100929.13;;;22.07;51.37
79006;BME280;69202;45.498;-73.582;2023-08-24T02:05:03;101076.53;;;23.03;51.41
79006;BME280;69202;45.498;-73.582;2023-08-24T02:07:29;101037.59;;;22.74;51.69
79006;BME280;69202;45.498;-73.582;2023-08-24T02:09:55;101080.69;;;23.11;51.54
79006;BME280;69202;45.498;-73.582;2023-08-24T02:12:21;100886.09;;;21.91;51.95
79006;BME280;69202;45.498;-73.582;2023-08-24T02:14:47;100846.59;;;21.55;51.72
79006;BME280;69202;45.498;-73.582;2023-08-24T02:17:13;101038.47;;;22.90;51.76
79006;BME280;69202;45.498;-73.582;2023-08-24T02:19:40;101083.47;;;23.16;51.96
79006;BME280;69202;45.498;-73.582;2023-08-24T02:22:07;101121.28;;;23.41;52.13
79006;BME280;69202;45.498;-73.582;2023-08-24T02:24:33;100830.94;;;21.66;52.01
79006;BME280;69202;45.498;-73.582;2023-08-24T02:27:00;100960.59;;;22.37;51.88
79006;BME280;69202;45.498;-73.582;2023-08-24T02:29:26;100964.75;;;22.44;51.82
79006;BME280;69202;45.498;-73.582;2023-08-24T02:31:53;101013.31;;;22.71;51.80
79006;BME280;69202;45.498;-73.582;2023-08-24T02:34:19;100731.41;;;21.11;51.83
79006;BME280;69202;45.498;-73.582;2023-08-24T02:36:45;101097.53;;;23.19;51.82
79006;BME280;69202;45.498;-73.582;2023-08-24T02:39:11;100870.69;;;22.05;51.89
79006;BME280;69202;45.498;-73.582;2023-08-24T02:41:38;101095.91;;;23.28;51.88
79006;BME280;69202;45.498;-73.582;2023-08-24T02:44:04;101040.97;;;23.01;51.53
79006;BME280;69202;45.498;-73.582;2023-08-24T02:46:30;101027.75;;;22.93;51.38
79006;BME280;69202;45.498;-73.582;2023-08-24T02:48:55;100836.75;;;21.74;51.07
79006;BME280;69202;45.498;-73.582;2023-08-24T02:51:22;100947.13;;;22.45;51.34
79006;BME280;69202;45.498;-73.582;2023-08-24T02:53:48;101123.47;;;23.33;51.26
79006;BME280;69202;45.498;-73.582;2023-08-24T02:56:15;101017.78;;;22.87;51.21
79006;BME280;69202;45.498;-73.582;2023-08-24T02:58:41;101066.38;;;23.19;50.99
79006;BME280;69202;45.498;-73.582;2023-08-24T03:01:07;100873.16;;;21.92;51.37
79006;BME280;69202;45.498;-73.582;2023-08-24T03:03:37;100857.19;;;21.88;50.96
79006;BME280;69202;45.498;-73.582;2023-08-24T03:06:05;100956.50;;;22.44;50.91
79006;BME280;69202;45.498;-73.582;2023-08-24T03:08:32;101093.41;;;23.22;51.24
79006;BME280;69202;45.498;-73.582;2023-08-24T03:10:59;100755.66;;;21.19;50.89
79006;BME280;69202;45.498;-73.582;2023-08-24T03:13:25;100851.91;;;21.77;50.94
79006;BME280;69202;45.498;-73.582;2023-08-24T03:15:51;101011.16;;;22.83;51.00
79006;BME280;69202;45.498;-73.582;2023-08-24T03:18:20;100783.00;;;21.41;50.76
79006;BME280;69202;45.498;-73.582;2023-08-24T03:20:47;100963.97;;;22.54;50.71
79006;BME280;69202;45.498;-73.582;2023-08-24T03:23:14;101077.13;;;23.25;51.12
79006;BME280;69202;45.498;-73.582;2023-08-24T03:25:41;101109.94;;;23.22;51.18
79006;BME280;69202;45.498;-73.582;2023-08-24T03:28:08;100794.56;;;21.38;51.52
79006;BME280;69202;45.498;-73.582;2023-08-24T03:30:35;101088.41;;;22.98;51.46
79006;BME280;69202;45.498;-73.582;2023-08-24T03:33:02;100739.25;;;20.77;51.57
79006;BME280;69202;45.498;-73.582;2023-08-24T03:35:32;101082.63;;;23.00;52.18
79006;BME280;69202;45.498;-73.582;2023-08-24T03:37:58;101061.59;;;22.79;52.32
79006;BME280;69202;45.498;-73.582;2023-08-24T03:40:24;100972.41;;;22.17;52.36
79006;BME280;69202;45.498;-73.582;2023-08-24T03:42:50;101059.06;;;22.67;52.53
79006;BME280;69202;45.498;-73.582;2023-08-24T03:45:18;101078.97;;;22.74;52.72
79006;BME280;69202;45.498;-73.582;2023-08-24T03:47:44;101099.91;;;22.75;52.93
79006;BME280;69202;45.498;-73.582;2023-08-24T03:50:10;100944.44;;;21.83;53.01
79006;BME280;69202;45.498;-73.582;2023-08-24T03:52:36;100999.25;;;21.89;53.16
79006;BME280;69202;45.498;-73.582;2023-08-24T03:55:02;101070.34;;;22.60;53.20
79006;BME280;69202;45.498;-73.582;2023-08-24T03:57:28;101084.69;;;22.52;53.50
79006;BME280;69202;45.498;-73.582;2023-08-24T03:59:54;100867.94;;;21.27;53.88
79006;BME280;69202;45.498;-73.582;2023-08-24T04:02:20;100909.50;;;21.31;53.84
79006;BME280;69202;45.498;-73.582;2023-08-24T04:04:46;100740.25;;;20.29;53.90
79006;BME280;69202;45.498;-73.582;2023-08-24T04:07:12;100971.34;;;21.71;54.22
79006;BME280;69202;45.498;-73.582;2023-08-24T04:09:38;100876.47;;;21.26;54.05
79006;BME280;69202;45.498;-73.582;2023-08-24T04:12:04;100958.63;;;21.59;54.54
79006;BME280;69202;45.498;-73.582;2023-08-24T04:14:30;101005.84;;;21.88;54.76
79006;BME280;69202;45.498;-73.582;2023-08-24T04:16:56;100941.53;;;21.52;54.94
79006;BME280;69202;45.498;-73.582;2023-08-24T04:19:22;101063.59;;;22.21;55.42
79006;BME280;69202;45.498;-73.582;2023-08-24T04:21:48;101047.50;;;22.02;55.72
79006;BME280;69202;45.498;-73.582;2023-08-24T04:24:14;100944.75;;;21.44;55.67
79006;BME280;69202;45.498;-73.582;2023-08-24T04:26:40;101024.03;;;21.95;55.92
79006;BME280;69202;45.498;-73.582;2023-08-24T04:29:06;100887.31;;;21.06;56.14
79006;BME280;69202;45.498;-73.582;2023-08-24T04:31:32;100870.75;;;20.95;56.36
79006;BME280;69202;45.498;-73.582;2023-08-24T04:33:58;101001.56;;;21.66;56.69
79006;BME280;69202;45.498;-73.582;2023-08-24T04:36:24;101006.78;;;21.62;56.69
79006;BME280;69202;45.498;-73.582;2023-08-24T04:38:49;100931.38;;;21.21;56.81
79006;BME280;69202;45.498;-73.582;2023-08-24T04:41:15;100922.47;;;21.03;56.89
79006;BME280;69202;45.498;-73.582;2023-08-24T04:43:41;100863.56;;;20.57;56.23
79006;BME280;69202;45.498;-73.582;2023-08-24T04:46:07;100944.53;;;21.14;56.39
79006;BME280;69202;45.498;-73.582;2023-08-24T04:48:33;100717.84;;;19.73;56.28
79006;BME280;69202;45.498;-73.582;2023-08-24T04:51:01;100856.16;;;20.58;56.04
79006;BME280;69202;45.498;-73.582;2023-08-24T04:53:27;100862.00;;;20.66;56.01
79006;BME280;69202;45.498;-73.582;2023-08-24T04:55:53;100862.03;;;20.71;56.32
79006;BME280;69202;45.498;-73.582;2023-08-24T04:58:19;100877.25;;;20.84;56.63
79006;BME280;69202;45.498;-73.582;2023-08-24T05:00:45;101040.28;;;21.96;56.74
79006;BME280;69202;45.498;-73.582;2023-08-24T05:03:11;100983.91;;;21.56;56.86
79006;BME280;69202;45.498;-73.582;2023-08-24T05:05:38;100863.09;;;20.65;57.17
79006;BME280;69202;45.498;-73.582;2023-08-24T05:08:05;100810.00;;;20.55;56.98
79006;BME280;69202;45.498;-73.582;2023-08-24T05:10:33;100784.81;;;20.36;56.92
79006;BME280;69202;45.498;-73.582;2023-08-24T05:12:59;100964.34;;;21.53;57.16
79006;BME280;69202;45.498;-73.582;2023-08-24T05:15:26;100662.34;;;19.66;57.44
79006;BME280;69202;45.498;-73.582;2023-08-24T05:17:52;100799.94;;;20.38;57.71
79006;BME280;69202;45.498;-73.582;2023-08-24T05:20:21;100796.19;;;20.44;57.83
79006;BME280;69202;45.498;-73.582;2023-08-24T05:22:47;100968.44;;;21.45;58.05
79006;BME280;69202;45.498;-73.582;2023-08-24T05:25:13;101033.63;;;21.82;58.18
79006;BME280;69202;45.498;-73.582;2023-08-24T05:27:42;100868.44;;;20.82;58.06
79006;BME280;69202;45.498;-73.582;2023-08-24T05:30:08;100714.03;;;19.79;58.38
79006;BME280;69202;45.498;-73.582;2023-08-24T05:32:34;100954.94;;;21.39;58.55
79006;BME280;69202;45.498;-73.582;2023-08-24T05:35:07;100930.28;;;21.22;58.37
79006;BME280;69202;45.498;-73.582;2023-08-24T05:37:35;100895.78;;;20.99;58.62
79006;BME280;69202;45.498;-73.582;2023-08-24T05:40:01;100959.56;;;21.33;58.45
79006;BME280;69202;45.498;-73.582;2023-08-24T05:42:28;100989.63;;;21.45;58.41
79006;BME280;69202;45.498;-73.582;2023-08-24T05:44:54;100873.50;;;20.63;58.44
79006;BME280;69202;45.498;-73.582;2023-08-24T05:47:20;101021.13;;;21.64;58.56
79006;BME280;69202;45.498;-73.582;2023-08-24T05:49:46;101014.44;;;21.50;58.37
79006;BME280;69202;45.498;-73.582;2023-08-24T05:52:11;100891.84;;;20.85;58.42
79006;BME280;69202;45.498;-73.582;2023-08-24T05:54:38;100857.53;;;20.60;58.29
79006;BME280;69202;45.498;-73.582;2023-08-24T05:57:04;100914.03;;;20.78;57.74
79006;BME280;69202;45.498;-73.582;2023-08-24T05:59:31;100917.06;;;20.82;57.77
79006;BME280;69202;45.498;-73.582;2023-08-24T06:01:57;100789.78;;;20.07;57.98
79006;BME280;69202;45.498;-73.582;2023-08-24T06:04:23;100858.91;;;20.58;58.01
79006;BME280;69202;45.498;-73.582;2023-08-24T06:06:49;100947.44;;;20.97;57.81
79006;BME280;69202;45.498;-73.582;2023-08-24T06:09:15;100937.41;;;20.81;57.85
79006;BME280;69202;45.498;-73.582;2023-08-24T06:11:41;100851.09;;;20.44;57.82
79006;BME280;69202;45.498;-73.582;2023-08-24T06:14:07;100754.47;;;19.88;58.31
79006;BME280;69202;45.498;-73.582;2023-08-24T06:16:33;100813.09;;;20.04;58.23
79006;BME280;69202;45.498;-73.582;2023-08-24T06:18:59;100799.81;;;19.96;58.36
79006;BME280;69202;45.498;-73.582;2023-08-24T06:21:25;100882.69;;;20.74;58.38
79006;BME280;69202;45.498;-73.582;2023-08-24T06:23:50;100877.69;;;20.71;58.41
79006;BME280;69202;45.498;-73.582;2023-08-24T06:26:17;100865.03;;;20.65;58.40
79006;BME280;69202;45.498;-73.582;2023-08-24T06:28:43;100688.06;;;19.32;58.65
79006;BME280;69202;45.498;-73.582;2023-08-24T06:31:09;100865.25;;;20.63;59.00
79006;BME280;69202;45.498;-73.582;2023-08-24T06:33:36;100621.00;;;18.91;59.20
79006;BME280;69202;45.498;-73.582;2023-08-24T06:36:03;100906.78;;;20.67;59.49
79006;BME280;69202;45.498;-73.582;2023-08-24T06:38:32;100951.84;;;20.98;59.80
79006;BME280;69202;45.498;-73.582;2023-08-24T06:40:58;100671.78;;;19.26;59.45
79006;BME280;69202;45.498;-73.582;2023-08-24T06:43:25;100883.53;;;20.48;60.17
79006;BME280;69202;45.498;-73.582;2023-08-24T06:45:51;100867.50;;;20.39;60.30
79006;BME280;69202;45.498;-73.582;2023-08-24T06:48:17;100878.03;;;20.48;59.95
79006;BME280;69202;45.498;-73.582;2023-08-24T06:50:44;101019.84;;;21.40;59.50
79006;BME280;69202;45.498;-73.582;2023-08-24T06:53:09;100814.84;;;20.15;59.56
79006;BME280;69202;45.498;-73.582;2023-08-24T06:55:35;100862.09;;;20.44;58.39
79006;BME280;69202;45.498;-73.582;2023-08-24T06:58:02;100954.91;;;21.01;58.46
79006;BME280;69202;45.498;-73.582;2023-08-24T07:00:32;101025.38;;;21.45;59.54
79006;BME280;69202;45.498;-73.582;2023-08-24T07:02:59;100873.13;;;20.50;59.63
79006;BME280;69202;45.498;-73.582;2023-08-24T07:05:25;100677.13;;;19.11;59.11
79006;BME280;69202;45.498;-73.582;2023-08-24T07:07:52;100736.25;;;19.50;58.93
79006;BME280;69202;45.498;-73.582;2023-08-24T07:10:19;100993.13;;;21.03;58.84
79006;BME280;69202;45.498;-73.582;2023-08-24T07:12:45;101038.47;;;21.27;59.00
79006;BME280;69202;45.498;-73.582;2023-08-24T07:15:12;100962.41;;;20.79;58.93
79006;BME280;69202;45.498;-73.582;2023-08-24T07:17:38;101037.72;;;21.10;58.50
79006;BME280;69202;45.498;-73.582;2023-08-24T07:20:05;100814.34;;;19.92;58.40
79006;BME280;69202;45.498;-73.582;2023-08-24T07:22:32;100853.28;;;20.15;58.15
79006;BME280;69202;45.498;-73.582;2023-08-24T07:24:58;100961.59;;;20.84;57.93
79006;BME280;69202;45.498;-73.582;2023-08-24T07:27:24;101018.31;;;21.22;57.67
79006;BME280;69202;45.498;-73.582;2023-08-24T07:29:50;100702.06;;;19.09;58.18
79006;BME280;69202;45.498;-73.582;2023-08-24T07:32:16;100806.50;;;19.78;58.26
79006;BME280;69202;45.498;-73.582;2023-08-24T07:34:42;101020.69;;;21.13;58.10
79006;BME280;69202;45.498;-73.582;2023-08-24T07:37:07;100943.53;;;20.61;58.27
79006;BME280;69202;45.498;-73.582;2023-08-24T07:39:33;100955.44;;;20.66;58.13
79006;BME280;69202;45.498;-73.582;2023-08-24T07:41:59;101029.47;;;21.05;58.06
79006;BME280;69202;45.498;-73.582;2023-08-24T07:44:25;100879.22;;;20.03;58.38
79006;BME280;69202;45.498;-73.582;2023-08-24T07:46:52;100616.56;;;18.25;57.90
79006;BME280;69202;45.498;-73.582;2023-08-24T07:49:17;100856.09;;;19.72;57.89
79006;BME280;69202;45.498;-73.582;2023-08-24T07:51:43;100863.94;;;19.85;58.14
79006;BME280;69202;45.498;-73.582;2023-08-24T07:54:09;100837.53;;;19.57;57.98
79006;BME280;69202;45.498;-73.582;2023-08-24T07:56:35;100886.38;;;20.04;57.93
79006;BME280;69202;45.498;-73.582;2023-08-24T07:59:02;100925.81;;;19.98;58.02
79006;BME280;69202;45.498;-73.582;2023-08-24T08:01:27;100915.84;;;20.13;58.01
79006;BME280;69202;45.498;-73.582;2023-08-24T08:03:53;100664.97;;;18.63;57.79
79006;BME280;69202;45.498;-73.582;2023-08-24T08:06:19;100976.69;;;20.49;57.56
79006;BME280;69202;45.498;-73.582;2023-08-24T08:08:47;100703.00;;;18.76;57.35
79006;BME280;69202;45.498;-73.582;2023-08-24T08:11:15;100682.50;;;18.62;57.91
79006;BME280;69202;45.498;-73.582;2023-08-24T08:13:41;100681.13;;;18.42;58.10
79006;BME280;69202;45.498;-73.582;2023-08-24T08:16:07;100628.63;;;18.07;58.40
79006;BME280;69202;45.498;-73.582;2023-08-24T08:18:35;100880.09;;;19.81;58.56
79006;BME280;69202;45.498;-73.582;2023-08-24T08:21:01;100887.91;;;19.95;58.94
79006;BME280;69202;45.498;-73.582;2023-08-24T08:23:29;100994.03;;;20.82;59.05
79006;BME280;69202;45.498;-73.582;2023-08-24T08:25:55;100942.88;;;20.75;58.13
79006;BME280;69202;45.498;-73.582;2023-08-24T08:28:21;100967.94;;;21.16;57.54
79006;BME280;69202;45.498;-73.582;2023-08-24T08:30:48;100784.91;;;20.14;56.78
79006;BME280;69202;45.498;-73.582;2023-08-24T08:33:15;100971.28;;;21.23;56.75
79006;BME280;69202;45.498;-73.582;2023-08-24T08:35:40;100902.34;;;20.61;57.27
79006;BME280;69202;45.498;-73.582;2023-08-24T08:38:06;100952.50;;;20.78;57.69
79006;BME280;69202;45.498;-73.582;2023-08-24T08:40:38;100783.75;;;19.56;58.03
79006;BME280;69202;45.498;-73.582;2023-08-24T08:43:06;100922.84;;;20.26;58.39
79006;BME280;69202;45.498;-73.582;2023-08-24T08:45:32;100722.31;;;19.08;58.74
79006;BME280;69202;45.498;-73.582;2023-08-24T08:48:00;101019.00;;;20.75;59.04
79006;BME280;69202;45.498;-73.582;2023-08-24T08:50:26;100633.63;;;18.32;58.86
79006;BME280;69202;45.498;-73.582;2023-08-24T08:52:53;100974.56;;;20.34;59.29
79006;BME280;69202;45.498;-73.582;2023-08-24T08:55:19;100919.75;;;19.96;59.50
79006;BME280;69202;45.498;-73.582;2023-08-24T08:57:49;100973.19;;;20.10;59.58
79006;BME280;69202;45.498;-73.582;2023-08-24T09:00:18;100995.59;;;20.24;59.81
79006;BME280;69202;45.498;-73.582;2023-08-24T09:02:45;101023.06;;;20.45;59.57
79006;BME280;69202;45.498;-73.582;2023-08-24T09:05:14;101009.94;;;20.53;60.33
79006;BME280;69202;45.498;-73.582;2023-08-24T09:07:41;101012.44;;;20.81;59.83
79006;BME280;69202;45.498;-73.582;2023-08-24T09:10:08;100841.81;;;19.97;59.56
79006;BME280;69202;45.498;-73.582;2023-08-24T09:12:34;100849.41;;;20.11;58.58
79006;BME280;69202;45.498;-73.582;2023-08-24T09:15:07;101018.31;;;21.22;58.51
79006;BME280;69202;45.498;-73.582;2023-08-24T09:17:33;100728.16;;;19.17;59.03
79006;BME280;69202;45.498;-73.582;2023-08-24T09:20:00;100736.59;;;19.10;59.74
79006;BME280;69202;45.498;-73.582;2023-08-24T09:22:26;100638.81;;;18.50;60.10
79006;BME280;69202;45.498;-73.582;2023-08-24T09:24:52;100630.97;;;18.37;59.82
79006;BME280;69202;45.498;-73.582;2023-08-24T09:27:21;100883.63;;;20.31;59.81
79006;BME280;69202;45.498;-73.582;2023-08-24T09:29:48;101016.66;;;21.21;59.34
79006;BME280;69202;45.498;-73.582;2023-08-24T09:32:21;100955.72;;;20.70;59.65
79006;BME280;69202;45.498;-73.582;2023-08-24T09:34:47;100813.28;;;19.49;59.91
79006;BME280;69202;45.498;-73.582;2023-08-24T09:37:14;101020.66;;;20.76;60.47
79006;BME280;69202;45.498;-73.582;2023-08-24T09:39:41;100954.84;;;20.15;60.85
79006;BME280;69202;45.498;-73.582;2023-08-24T09:42:07;100876.84;;;19.46;61.74
79006;BME280;69202;45.498;-73.582;2023-08-24T09:44:33;100996.09;;;20.21;61.48
79006;BME280;69202;45.498;-73.582;2023-08-24T09:46:59;100958.44;;;19.94;61.77
79006;BME280;69202;45.498;-73.582;2023-08-24T09:49:26;101031.59;;;20.27;61.87
79006;BME280;69202;45.498;-73.582;2023-08-24T09:51:56;101048.34;;;20.26;62.43
79006;BME280;69202;45.498;-73.582;2023-08-24T09:54:27;101004.06;;;20.00;62.77
79006;BME280;69202;45.498;-73.582;2023-08-24T09:56:55;100994.41;;;19.93;62.61
79006;BME280;69202;45.498;-73.582;2023-08-24T09:59:26;100996.09;;;19.99;62.73
79006;BME280;69202;45.498;-73.582;2023-08-24T10:01:54;101018.53;;;20.12;62.57
79006;BME280;69202;45.498;-73.582;2023-08-24T10:04:25;101013.78;;;20.08;62.81
79006;BME280;69202;45.498;-73.582;2023-08-24T10:07:06;100776.69;;;18.61;62.66
79006;BME280;69202;45.498;-73.582;2023-08-24T10:09:39;101057.41;;;20.26;62.73
79006;BME280;69202;45.498;-73.582;2023-08-24T10:12:08;101012.25;;;19.95;62.79
79006;BME280;69202;45.498;-73.582;2023-08-24T10:15:02;101035.50;;;20.09;63.46
79006;BME280;69202;45.498;-73.582;2023-08-24T10:17:29;100955.81;;;19.44;63.64
79006;BME280;69202;45.498;-73.582;2023-08-24T10:19:58;100907.69;;;19.14;63.44
79006;BME280;69202;45.498;-73.582;2023-08-24T10:22:31;101056.50;;;19.99;63.53
79006;BME280;69202;45.498;-73.582;2023-08-24T10:24:57;101018.56;;;19.74;63.86
79006;BME280;69202;45.498;-73.582;2023-08-24T10:27:23;100948.53;;;19.16;63.87
79006;BME280;69202;45.498;-73.582;2023-08-24T10:29:51;100909.13;;;18.83;63.42
79006;BME280;69202;45.498;-73.582;2023-08-24T10:32:19;100770.25;;;18.00;63.43
79006;BME280;69202;45.498;-73.582;2023-08-24T10:34:45;100932.44;;;19.19;63.65
79006;BME280;69202;45.498;-73.582;2023-08-24T10:37:12;101013.31;;;19.72;63.40
79006;BME280;69202;45.498;-73.582;2023-08-24T10:39:44;100918.47;;;19.21;63.01
79006;BME280;69202;45.498;-73.582;2023-08-24T10:42:12;101059.63;;;20.07;62.97
79006;BME280;69202;45.498;-73.582;2023-08-24T10:44:40;100898.16;;;19.00;63.07
79006;BME280;69202;45.498;-73.582;2023-08-24T10:47:21;100990.47;;;19.67;62.99
79006;BME280;69202;45.498;-73.582;2023-08-24T10:54:49;101052.22;;;20.30;62.03
79006;BME280;69202;45.498;-73.582;2023-08-24T10:57:19;100903.47;;;19.45;61.72
79006;BME280;69202;45.498;-73.582;2023-08-24T10:59:57;100920.16;;;19.60;61.69
79006;BME280;69202;45.498;-73.582;2023-08-24T11:02:25;101054.09;;;20.68;61.45
79006;BME280;69202;45.498;-73.582;2023-08-24T11:05:04;100886.53;;;19.70;60.39
79006;BME280;69202;45.498;-73.582;2023-08-24T11:07:31;100874.47;;;19.71;60.69
79006;BME280;69202;45.498;-73.582;2023-08-24T11:09:57;100857.13;;;19.66;59.63
79006;BME280;69202;45.498;-73.582;2023-08-24T11:12:23;100931.69;;;20.06;59.78
79006;BME280;69202;45.498;-73.582;2023-08-24T11:14:49;100994.00;;;20.50;60.38
79006;BME280;69202;45.498;-73.582;2023-08-24T11:17:30;100842.34;;;19.94;60.23
79006;BME280;69202;45.498;-73.582;2023-08-24T11:20:00;101077.97;;;21.48;58.49
79006;BME280;69202;45.498;-73.582;2023-08-24T11:22:26;100972.50;;;20.73;58.20
79006;BME280;69202;45.498;-73.582;2023-08-24T11:24:52;101028.59;;;21.04;58.93
79006;BME280;69202;45.498;-73.582;2023-08-24T11:27:20;101002.72;;;21.00;59.52
79006;BME280;69202;45.498;-73.582;2023-08-24T11:29:47;100868.03;;;20.36;58.32
79006;BME280;69202;45.498;-73.582;2023-08-24T11:32:12;100949.78;;;20.83;58.05
79006;BME280;69202;45.498;-73.582;2023-08-24T11:34:39;101043.41;;;21.63;56.86
79006;BME280;69202;45.498;-73.582;2023-08-24T11:37:05;101054.38;;;21.57;57.31
79006;BME280;69202;45.498;-73.582;2023-08-24T11:39:31;100970.88;;;21.37;57.50
79006;BME280;69202;45.498;-73.582;2023-08-24T11:42:05;100955.78;;;21.44;55.72
79006;BME280;69202;45.498;-73.582;2023-08-24T11:44:47;101035.88;;;21.95;56.04
79006;BME280;69202;45.498;-73.582;2023-08-24T11:47:14;101069.94;;;22.21;56.31
79006;BME280;69202;45.498;-73.582;2023-08-24T11:49:41;101082.72;;;22.42;55.50
79006;BME280;69202;45.498;-73.582;2023-08-24T11:52:07;100866.06;;;20.96;54.50
79006;BME280;69202;45.498;-73.582;2023-08-24T11:54:34;100885.13;;;21.08;53.94
79006;BME280;69202;45.498;-73.582;2023-08-24T11:57:12;101095.56;;;22.27;54.36
79006;BME280;69202;45.498;-73.582;2023-08-24T11:59:39;100965.94;;;21.39;54.43
79006;BME280;69202;45.498;-73.582;2023-08-24T12:02:05;101047.78;;;22.06;54.87
79006;BME280;69202;45.498;-73.582;2023-08-24T12:04:41;100852.88;;;20.98;54.67
79006;BME280;69202;45.498;-73.582;2023-08-24T12:07:14;100898.25;;;21.38;53.90
79006;BME280;69202;45.498;-73.582;2023-08-24T12:09:43;101079.44;;;22.61;53.48
79006;BME280;69202;45.498;-73.582;2023-08-24T12:12:14;101078.63;;;22.60;54.54
79006;BME280;69202;45.498;-73.582;2023-08-24T12:14:42;101088.06;;;22.74;54.80
79006;BME280;69202;45.498;-73.582;2023-08-24T12:17:09;101082.25;;;22.76;53.77
79006;BME280;69202;45.498;-73.582;2023-08-24T12:19:35;100978.88;;;21.96;53.74
79006;BME280;69202;45.498;-73.582;2023-08-24T12:22:01;100994.97;;;22.14;54.04
79006;BME280;69202;45.498;-73.582;2023-08-24T12:24:27;101112.31;;;22.72;53.80
79006;BME280;69202;45.498;-73.582;2023-08-24T12:26:57;101047.97;;;22.41;53.90
79006;BME280;69202;45.498;-73.582;2023-08-24T12:29:28;100922.75;;;21.44;53.92
79006;BME280;69202;45.498;-73.582;2023-08-24T12:31:57;100975.31;;;21.90;54.82
79006;BME280;69202;45.498;-73.582;2023-08-24T12:34:24;101065.09;;;22.54;54.07
79006;BME280;69202;45.498;-73.582;2023-08-24T12:36:49;101024.81;;;22.37;54.73
79006;BME280;69202;45.498;-73.582;2023-08-24T12:39:16;100913.59;;;21.81;53.86